Cape Canaveral AFS Skid Strip


Codes: KXMR/
Name: Cape Canaveral AFS Skid Strip
City: Cocoa Beach
Country: United States
Elevation: 10 ft.
Wikipedia:

Photos at Cape Canaveral AFS Skid Strip


   Photos courtesy of SpottingLog. You can add your own sightings and photos by signing up for a free trial today.



No photos found.

Weather at Cape Canaveral AFS Skid Strip


Time (UTC)DescriptionTempratureWindCloud coverageVisibilityPressureHumidity
15-Apr-2024 15:00Few Clouds25°C4 mph, SE19%10000m1021hPa59%
15-Apr-2024 18:00Few Clouds25°C9 mph, E17%10000m1021hPa58%
15-Apr-2024 21:00Clear Sky24°C9 mph, E6%10000m1020hPa57%
16-Apr-2024 00:00Clear Sky22°C11 mph, SE0%10000m1020hPa65%
16-Apr-2024 03:00Clear Sky22°C11 mph, SE1%10000m1020hPa64%
16-Apr-2024 06:00Clear Sky21°C9 mph, SE0%10000m1020hPa66%
16-Apr-2024 09:00Clear Sky21°C7 mph, SE2%10000m1020hPa68%
16-Apr-2024 12:00Clear Sky22°C9 mph, SE3%10000m1021hPa66%
16-Apr-2024 15:00Clear Sky23°C11 mph, SE2%10000m1022hPa62%
16-Apr-2024 18:00Broken Clouds24°C11 mph, SE52%10000m1021hPa61%
16-Apr-2024 21:00Overcast Clouds24°C11 mph, SE92%10000m1020hPa63%
17-Apr-2024 00:00Scattered Clouds22°C11 mph, SE49%10000m1020hPa72%
17-Apr-2024 03:00Broken Clouds22°C9 mph, SE79%10000m1021hPa72%
17-Apr-2024 06:00Overcast Clouds22°C11 mph, SE89%10000m1020hPa73%
17-Apr-2024 09:00Overcast Clouds22°C11 mph, SE100%10000m1019hPa73%
17-Apr-2024 12:00Overcast Clouds22°C11 mph, SE98%10000m1020hPa72%
17-Apr-2024 15:00Clear Sky24°C11 mph, SE4%10000m1021hPa67%
17-Apr-2024 18:00Few Clouds24°C11 mph, SE21%10000m1020hPa66%
17-Apr-2024 21:00Overcast Clouds24°C11 mph, SE95%10000m1019hPa67%
18-Apr-2024 00:00Broken Clouds22°C9 mph, SE70%10000m1019hPa74%
18-Apr-2024 03:00Few Clouds22°C13 mph, SE15%10000m1020hPa75%
18-Apr-2024 06:00Few Clouds22°C9 mph, S16%10000m1018hPa76%
18-Apr-2024 09:00Overcast Clouds22°C9 mph, S95%10000m1017hPa77%
18-Apr-2024 12:00Overcast Clouds22°C7 mph, S97%10000m1019hPa78%
18-Apr-2024 15:00Broken Clouds24°C4 mph, SE55%10000m1020hPa66%
18-Apr-2024 18:00Scattered Clouds25°C11 mph, SE39%10000m1019hPa64%
18-Apr-2024 21:00Clear Sky24°C13 mph, SE8%10000m1017hPa67%
19-Apr-2024 00:00Few Clouds23°C13 mph, SE14%10000m1017hPa74%
19-Apr-2024 03:00Few Clouds22°C13 mph, S16%10000m1018hPa77%
19-Apr-2024 06:00Broken Clouds21°C9 mph, S53%10000m1017hPa78%
19-Apr-2024 09:00Overcast Clouds21°C7 mph, SW100%10000m1017hPa74%
19-Apr-2024 12:00Broken Clouds21°C7 mph, SW70%10000m1018hPa73%
19-Apr-2024 15:00Few Clouds24°C9 mph, S12%10000m1018hPa63%
19-Apr-2024 18:00Few Clouds26°C13 mph, SE16%10000m1017hPa66%
19-Apr-2024 21:00Scattered Clouds25°C18 mph, SE40%10000m1015hPa69%
20-Apr-2024 00:00Broken Clouds24°C13 mph, SE51%10000m1016hPa79%
20-Apr-2024 03:00Clear Sky23°C11 mph, SE6%10000m1017hPa81%
20-Apr-2024 06:00Few Clouds22°C4 mph, W17%10000m1015hPa76%
20-Apr-2024 09:00Overcast Clouds22°C9 mph, NW99%10000m1015hPa71%
20-Apr-2024 12:00Light Rain22°C4 mph, NW99%10000m1017hPa64%